Time;durP1;ratioP1;P1;durP2;ratioP2;P2;SDS_P1;SDS_P2;PMS_P1;PMS_P2;Temp;Humidity;BMP_temperature;BMP_pressure;BME280_temperature;BME280_humidity;BME280_pressure;Samples;Min_cycle;Max_cycle;Signal;HPM_P1;HPM_P2
2022/02/11 00:08:51;;;;;;;6.63;1.55;;;6.70;93.30;;;;;;5093649;28;20035;-70
2022/02/11 00:11:19;;;;;;;5.68;1.35;;;6.70;93.30;;;;;;5093527;28;20099;-71
2022/02/11 00:13:45;;;;;;;4.78;1.35;;;6.60;93.30;;;;;;5101661;28;20031;-71
2022/02/11 00:16:11;;;;;;;3.20;1.38;;;6.60;93.30;;;;;;5088988;28;20048;-71
2022/02/11 00:18:36;;;;;;;5.07;1.20;;;6.60;93.20;;;;;;5073163;28;20455;-71
2022/02/11 00:21:02;;;;;;;5.78;1.35;;;6.60;93.30;;;;;;5090236;28;20027;-70
2022/02/11 00:23:29;;;;;;;5.25;1.38;;;6.60;93.20;;;;;;5081608;28;20036;-70
2022/02/11 00:26:00;;;;;;;11.52;2.00;;;6.60;93.30;;;;;;5091821;28;20032;-70
2022/02/11 00:29:21;;;;;;;5.50;1.42;;;6.60;93.30;;;;;;5092875;28;20038;-71
2022/02/11 00:33:57;;;;;;;4.03;1.08;;;6.50;93.30;;;;;;5087122;28;20369;-70
2022/02/11 00:36:29;;;;;;;6.57;1.95;;;6.40;93.30;;;;;;5085517;28;20024;-71
2022/02/11 01:03:15;;;;;;;8.18;2.55;;;6.30;93.70;;;;;;5087222;28;20044;-70
2022/02/11 01:05:41;;;;;;;5.50;1.08;;;6.30;93.70;;;;;;5082445;28;20123;-70
2022/02/11 01:08:06;;;;;;;1.65;0.75;;;6.30;93.70;;;;;;5085787;28;20052;-70
2022/02/11 01:10:33;;;;;;;7.55;2.17;;;6.30;93.80;;;;;;5082234;28;20085;-70
2022/02/11 01:12:59;;;;;;;8.13;2.08;;;6.30;93.80;;;;;;5101100;28;20097;-70
2022/02/11 01:15:27;;;;;;;8.73;1.65;;;6.30;93.80;;;;;;5080385;28;20045;-70
2022/02/11 01:17:57;;;;;;;13.98;1.65;;;6.30;93.80;;;;;;5090826;28;20034;-70
2022/02/11 01:20:46;;;;;;;3.58;1.10;;;6.30;93.80;;;;;;5086438;28;20028;-70
2022/02/11 01:23:24;;;;;;;6.70;1.48;;;6.30;93.80;;;;;;5080780;28;20031;-70
2022/02/11 01:28:57;;;;;;;5.63;1.88;;;6.30;93.80;;;;;;5092630;28;20028;-70
2022/02/11 01:36:30;;;;;;;8.30;2.13;;;6.30;93.90;;;;;;5092306;28;20048;-71
2022/02/11 01:55:36;;;;;;;13.68;2.42;;;6.20;94.30;;;;;;5082297;28;20059;-70
2022/02/11 02:08:48;;;;;;;8.02;2.35;;;6.20;94.60;;;;;;5095043;28;20353;-71
2022/02/11 02:27:42;;;;;;;2.88;1.05;;;6.30;95.50;;;;;;5094849;28;20036;-70
2022/02/11 03:00:25;;;;;;;6.95;1.67;;;6.20;96.30;;;;;;5094795;28;20043;-70
2022/02/11 03:48:35;;;;;;;8.73;2.33;;;6.10;97.90;;;;;;5087414;28;20036;-70
2022/02/11 03:49:54;;;;;;;8.70;1.83;;;6.50;97.30;;;;;;5083310;28;20055;-70
2022/02/11 04:56:04;;;;;;;14.40;2.22;;;6.90;97.00;;;;;;5083249;28;20029;-70
2022/02/11 05:01:15;;;;;;;16.77;3.15;;;7.00;97.00;;;;;;5079544;28;20073;-70
2022/02/11 05:03:40;;;;;;;10.45;2.25;;;6.90;97.00;;;;;;5092113;28;20032;-70
2022/02/11 05:06:06;;;;;;;17.80;2.60;;;6.90;97.00;;;;;;5079133;28;20036;-70
2022/02/11 05:08:32;;;;;;;11.13;1.60;;;7.00;97.10;;;;;;5078839;28;20032;-69
2022/02/11 05:10:58;;;;;;;12.52;2.20;;;6.90;97.00;;;;;;5092487;28;20044;-70
2022/02/11 05:13:33;;;;;;;11.05;1.85;;;7.00;97.00;;;;;;5092814;28;20054;-70
2022/02/11 05:15:58;;;;;;;11.45;1.70;;;7.00;97.00;;;;;;5078996;28;20060;-70
2022/02/11 05:18:24;;;;;;;10.50;2.05;;;7.00;97.00;;;;;;5092604;28;20027;-70
2022/02/11 05:20:50;;;;;;;8.23;1.67;;;7.00;97.00;;;;;;5092153;28;20028;-70
2022/02/11 05:23:17;;;;;;;11.40;2.47;;;7.00;96.90;;;;;;5091875;28;20077;-70
2022/02/11 05:25:44;;;;;;;20.27;3.45;;;7.10;96.90;;;;;;5092418;28;20361;-70
2022/02/11 05:28:11;;;;;;;19.85;2.53;;;7.10;96.80;;;;;;5096069;28;20028;-70
2022/02/11 05:30:38;;;;;;;7.60;1.80;;;7.10;96.70;;;;;;5094421;28;20036;-70
2022/02/11 05:33:05;;;;;;;20.77;2.97;;;7.10;96.70;;;;;;5096588;28;20138;-70
2022/02/11 05:35:31;;;;;;;13.68;2.53;;;7.10;96.70;;;;;;5095379;28;20029;-70
2022/02/11 05:37:57;;;;;;;21.10;3.75;;;7.10;96.80;;;;;;5099564;28;20019;-71
2022/02/11 05:40:23;;;;;;;18.42;4.60;;;7.10;96.80;;;;;;5083490;28;20051;-71
2022/02/11 05:42:52;;;;;;;28.58;3.97;;;7.10;96.70;;;;;;5095365;28;20061;-70
2022/02/11 05:45:18;;;;;;;26.52;4.07;;;7.20;96.80;;;;;;5096323;28;20038;-70
2022/02/11 05:47:44;;;;;;;9.85;2.45;;;7.20;96.80;;;;;;5096296;28;20103;-69
2022/02/11 05:50:10;;;;;;;19.02;2.92;;;7.20;96.80;;;;;;5094151;28;20028;-69
2022/02/11 05:52:36;;;;;;;19.65;3.50;;;7.30;96.80;;;;;;5081859;28;20025;-69
2022/02/11 05:55:03;;;;;;;14.25;2.72;;;7.20;96.70;;;;;;5090557;28;20475;-69
2022/02/11 05:57:29;;;;;;;32.42;4.85;;;7.20;96.70;;;;;;5089625;28;20081;-70
2022/02/11 05:59:55;;;;;;;15.15;3.33;;;7.30;96.70;;;;;;5088788;28;20130;-69
2022/02/11 06:02:21;;;;;;;29.20;3.45;;;7.20;96.80;;;;;;5092847;28;20115;-69
2022/02/11 06:04:47;;;;;;;12.13;2.28;;;7.30;96.80;;;;;;5089364;28;20086;-68
2022/02/11 06:07:12;;;;;;;16.83;3.22;;;7.30;96.60;;;;;;5091151;28;20036;-69
2022/02/11 06:09:38;;;;;;;20.60;4.10;;;7.30;96.40;;;;;;5094109;28;20038;-69
2022/02/11 06:12:04;;;;;;;17.33;3.10;;;7.30;96.30;;;;;;5093036;28;20023;-70
2022/02/11 06:14:30;;;;;;;12.73;2.60;;;7.30;96.40;;;;;;5093733;28;20438;-70
2022/02/11 06:16:56;;;;;;;29.08;3.83;;;7.20;96.50;;;;;;5093743;28;20099;-71
2022/02/11 06:19:21;;;;;;;30.25;4.00;;;7.20;96.60;;;;;;5093156;28;20444;-73
2022/02/11 06:21:48;;;;;;;16.17;2.83;;;7.20;96.70;;;;;;5092903;28;20396;-69
2022/02/11 06:24:13;;;;;;;24.58;3.33;;;7.20;96.70;;;;;;5089167;28;20032;-70
2022/02/11 06:26:40;;;;;;;20.23;4.20;;;7.20;96.70;;;;;;5092699;28;20040;-73
2022/02/11 06:29:06;;;;;;;20.13;3.15;;;7.20;97.20;;;;;;5092015;28;20436;-69
2022/02/11 06:31:31;;;;;;;15.40;3.15;;;7.20;96.90;;;;;;5093481;28;20122;-70
2022/02/11 06:33:57;;;;;;;18.40;2.85;;;7.20;96.90;;;;;;5090196;28;20027;-69
2022/02/11 06:36:23;;;;;;;14.15;2.88;;;7.20;96.80;;;;;;5089056;28;20036;-70
2022/02/11 06:38:48;;;;;;;17.65;3.63;;;7.20;96.60;;;;;;5090827;28;20039;-69
2022/02/11 06:41:14;;;;;;;12.60;2.13;;;7.10;96.70;;;;;;5090176;28;20371;-71
2022/02/11 06:43:40;;;;;;;17.10;3.35;;;7.10;96.70;;;;;;5092853;28;20035;-69
2022/02/11 06:46:06;;;;;;;20.60;4.28;;;7.20;96.60;;;;;;5091093;28;20020;-68
2022/02/11 06:48:31;;;;;;;20.73;4.15;;;7.10;96.30;;;;;;5092970;28;20043;-73
2022/02/11 06:50:58;;;;;;;4.97;1.10;;;7.10;96.00;;;;;;5093103;28;20410;-69
2022/02/11 06:53:24;;;;;;;7.93;1.63;;;7.10;96.10;;;;;;5076026;28;20039;-69
2022/02/11 06:55:49;;;;;;;8.52;2.22;;;7.00;96.50;;;;;;5094967;28;20028;-69
2022/02/11 06:58:15;;;;;;;13.93;2.05;;;7.00;96.50;;;;;;5093811;28;20048;-70
2022/02/11 07:00:47;;;;;;;10.70;1.80;;;7.00;96.40;;;;;;5093730;28;20036;-69
2022/02/11 07:03:13;;;;;;;14.00;2.42;;;7.00;96.50;;;;;;5093093;28;20028;-70
2022/02/11 07:05:39;;;;;;;22.27;3.13;;;7.00;96.50;;;;;;5094416;28;20131;-69
2022/02/11 07:08:06;;;;;;;16.63;3.38;;;7.00;96.50;;;;;;5089148;28;20039;-69
2022/02/11 07:10:32;;;;;;;6.57;1.23;;;7.00;96.50;;;;;;5085286;28;20036;-69
2022/02/11 07:12:58;;;;;;;7.88;1.35;;;7.00;96.90;;;;;;5080524;28;20035;-69
2022/02/11 07:15:24;;;;;;;9.63;1.70;;;7.00;96.60;;;;;;5093444;28;20106;-69
2022/02/11 07:17:52;;;;;;;9.38;2.13;;;7.00;96.50;;;;;;5088611;28;20472;-69
2022/02/11 07:20:18;;;;;;;15.80;1.85;;;7.00;96.50;;;;;;5087209;28;20126;-69
2022/02/11 07:22:44;;;;;;;6.50;1.48;;;7.00;96.40;;;;;;5073996;28;20033;-69
2022/02/11 07:25:12;;;;;;;12.15;1.90;;;7.00;96.40;;;;;;5087733;28;20441;-70
2022/02/11 07:27:39;;;;;;;14.32;2.53;;;7.00;96.40;;;;;;5094393;28;20866;-70
2022/02/11 07:30:07;;;;;;;18.05;3.17;;;7.10;96.40;;;;;;5085376;28;20468;-69
2022/02/11 07:32:36;;;;;;;11.48;2.00;;;7.10;96.30;;;;;;5088000;28;20032;-70
2022/02/11 07:35:03;;;;;;;9.55;2.03;;;7.10;96.30;;;;;;5086660;28;20041;-69
2022/02/11 07:37:30;;;;;;;9.18;1.90;;;7.20;96.40;;;;;;5075571;28;20101;-70
2022/02/11 07:39:57;;;;;;;9.82;1.50;;;7.20;96.20;;;;;;5105489;28;20498;-69
2022/02/11 07:42:26;;;;;;;10.55;2.53;;;7.20;96.20;;;;;;5093135;28;20035;-69
2022/02/11 07:44:53;;;;;;;14.07;2.70;;;7.30;96.00;;;;;;5094120;28;20032;-69
2022/02/11 07:47:19;;;;;;;6.28;1.60;;;7.30;96.00;;;;;;5093781;28;20034;-69
2022/02/11 07:49:44;;;;;;;10.45;2.35;;;7.20;95.80;;;;;;5082957;28;20044;-69
2022/02/11 07:52:11;;;;;;;11.57;1.60;;;7.20;95.80;;;;;;5073712;28;20025;-69
2022/02/11 07:54:37;;;;;;;2.88;1.52;;;7.30;96.00;;;;;;5084837;28;20028;-69
2022/02/11 07:57:02;;;;;;;6.15;2.20;;;7.20;96.00;;;;;;5079694;28;20470;-69
2022/02/11 07:59:28;;;;;;;11.73;1.30;;;7.30;96.00;;;;;;5093538;28;20422;-69
2022/02/11 08:01:54;;;;;;;8.82;1.77;;;7.30;96.00;;;;;;5093711;28;20093;-69
2022/02/11 08:04:20;;;;;;;3.72;1.10;;;7.40;95.90;;;;;;5093231;28;20047;-69
2022/02/11 08:06:47;;;;;;;5.63;1.10;;;7.40;95.90;;;;;;5093418;28;20028;-69
2022/02/11 08:09:16;;;;;;;6.20;1.58;;;7.50;95.80;;;;;;5093660;28;20040;-69
2022/02/11 08:11:41;;;;;;;4.25;1.00;;;7.50;95.70;;;;;;5092767;28;20046;-69
2022/02/11 08:14:07;;;;;;;8.70;1.23;;;7.50;95.60;;;;;;5093550;28;20549;-69
2022/02/11 08:16:33;;;;;;;8.98;2.22;;;7.50;95.40;;;;;;5093694;28;20024;-69
2022/02/11 08:18:59;;;;;;;6.38;1.67;;;7.50;95.40;;;;;;5092647;28;20043;-69
2022/02/11 08:21:24;;;;;;;3.53;1.35;;;7.40;95.50;;;;;;5092455;28;20123;-69
2022/02/11 08:23:51;;;;;;;6.13;1.75;;;7.40;95.60;;;;;;5092688;28;20050;-69
2022/02/11 08:26:17;;;;;;;14.23;1.92;;;7.40;95.60;;;;;;5072439;28;20112;-69
2022/02/11 08:28:42;;;;;;;5.53;1.77;;;7.40;95.70;;;;;;5085809;28;20067;-69
2022/02/11 08:31:08;;;;;;;6.72;1.70;;;7.40;95.80;;;;;;5090996;28;20028;-69
2022/02/11 08:33:34;;;;;;;3.83;1.20;;;7.40;95.80;;;;;;5081442;28;20138;-69
2022/02/11 08:36:00;;;;;;;8.93;2.45;;;7.40;95.80;;;;;;5079551;28;20040;-69
2022/02/11 08:38:27;;;;;;;14.02;2.72;;;7.40;95.70;;;;;;5100800;28;20042;-69
2022/02/11 08:40:56;;;;;;;10.00;1.40;;;7.40;95.70;;;;;;5092867;28;20426;-69
2022/02/11 08:43:22;;;;;;;11.35;2.65;;;7.40;95.70;;;;;;5072772;28;20032;-69
2022/02/11 08:45:48;;;;;;;13.57;2.08;;;7.30;95.70;;;;;;5075957;28;20623;-70
2022/02/11 08:48:15;;;;;;;13.02;2.75;;;7.30;95.80;;;;;;5093187;28;20163;-69
2022/02/11 08:50:42;;;;;;;3.00;1.30;;;7.30;95.90;;;;;;5087727;28;20029;-69
2022/02/11 08:53:09;;;;;;;3.10;1.00;;;7.30;96.00;;;;;;5084339;28;20032;-69
2022/02/11 08:55:36;;;;;;;2.90;0.90;;;7.40;96.10;;;;;;5092613;28;20435;-69
2022/02/11 08:58:04;;;;;;;6.68;1.45;;;7.40;96.00;;;;;;5092642;28;20059;-69
2022/02/11 09:00:31;;;;;;;3.60;0.85;;;7.50;95.90;;;;;;5084056;28;20502;-69
2022/02/11 09:02:57;;;;;;;8.73;1.00;;;7.50;95.70;;;;;;5085523;28;20024;-69
2022/02/11 09:05:24;;;;;;;6.60;1.17;;;7.50;95.70;;;;;;5092616;28;20390;-69
2022/02/11 09:07:58;;;;;;;7.00;1.35;;;7.60;95.70;;;;;;5091840;28;20039;-69
2022/02/11 09:10:28;;;;;;;6.97;1.30;;;7.60;95.60;;;;;;5083464;28;20033;-69
2022/02/11 09:13:02;;;;;;;6.03;1.17;;;7.60;95.50;;;;;;5075332;28;20379;-80
2022/02/11 09:15:29;;;;;;;7.93;1.85;;;7.60;95.40;;;;;;5088423;28;20443;-72
2022/02/11 09:17:55;;;;;;;7.38;2.35;;;7.70;95.40;;;;;;5084737;28;20028;-72
2022/02/11 09:20:22;;;;;;;18.20;2.80;;;7.70;95.40;;;;;;5090355;28;20437;-73
2022/02/11 09:22:48;;;;;;;5.88;1.70;;;7.70;95.30;;;;;;5101748;28;20024;-72
2022/02/11 09:25:14;;;;;;;7.30;2.15;;;7.80;95.20;;;;;;5104868;28;20115;-70
2022/02/11 09:27:43;;;;;;;8.30;1.77;;;7.70;95.20;;;;;;5090111;28;20031;-70
2022/02/11 09:30:20;;;;;;;7.90;2.03;;;7.70;95.20;;;;;;5084779;28;20024;-69
2022/02/11 09:32:47;;;;;;;10.20;1.65;;;7.80;95.10;;;;;;5074523;28;20037;-69
2022/02/11 09:35:15;;;;;;;10.60;2.13;;;7.80;95.10;;;;;;5091653;28;20169;-69
2022/02/11 09:37:41;;;;;;;8.77;1.88;;;7.80;95.20;;;;;;5094151;28;20029;-70
2022/02/11 09:40:10;;;;;;;17.20;2.13;;;7.70;95.10;;;;;;5102152;28;20036;-70
2022/02/11 09:42:38;;;;;;;4.82;1.67;;;7.80;95.20;;;;;;5090319;28;20024;-74
2022/02/11 09:45:06;;;;;;;5.88;1.23;;;7.70;95.20;;;;;;5091422;28;20149;-72
2022/02/11 09:47:32;;;;;;;6.75;1.10;;;7.80;95.30;;;;;;5092163;28;20046;-70
2022/02/11 09:49:58;;;;;;;7.20;1.98;;;7.80;95.10;;;;;;5087379;28;20039;-70
2022/02/11 09:52:24;;;;;;;10.98;1.83;;;7.80;95.00;;;;;;5091171;28;20024;-70
2022/02/11 09:55:31;;;;;;;6.22;1.73;;;7.80;95.00;;;;;;5091319;28;20032;-70
2022/02/11 09:57:41;;;;;;;11.38;1.67;;;7.80;95.00;;;;;;5090539;28;20075;-70
2022/02/11 10:00:08;;;;;;;8.68;1.77;;;7.80;95.10;;;;;;5091396;28;20081;-70
2022/02/11 10:02:56;;;;;;;9.93;2.13;;;7.80;95.10;;;;;;5091050;28;20016;-70
2022/02/11 10:05:23;;;;;;;7.20;1.92;;;7.90;95.10;;;;;;5086817;28;20379;-70
2022/02/11 10:07:49;;;;;;;13.40;2.50;;;7.90;95.10;;;;;;5089256;28;20043;-70
2022/02/11 10:10:18;;;;;;;6.72;1.38;;;7.90;95.00;;;;;;5086642;28;20032;-70
2022/02/11 10:12:45;;;;;;;8.27;1.58;;;7.90;95.00;;;;;;5085305;28;20029;-70
2022/02/11 10:15:19;;;;;;;12.00;3.03;;;7.90;95.00;;;;;;5087818;28;20024;-69
2022/02/11 10:17:45;;;;;;;;;;;8.00;94.90;;;;;;5083588;28;20081;-71
2022/02/11 10:20:10;;;;;;;15.57;2.90;;;8.00;94.90;;;;;;5093524;28;19916;-69
2022/02/11 10:22:36;;;;;;;13.98;2.88;;;8.00;94.80;;;;;;5091365;28;20123;-70
2022/02/11 10:25:02;;;;;;;19.55;2.15;;;8.00;94.80;;;;;;5093313;28;20032;-70
2022/02/11 10:27:33;;;;;;;6.68;1.65;;;7.90;94.80;;;;;;5093883;28;20040;-70
2022/02/11 10:30:08;;;;;;;22.50;2.30;;;7.90;94.90;;;;;;5089546;28;20028;-70
2022/02/11 10:32:49;;;;;;;4.57;1.70;;;7.90;94.90;;;;;;5092371;28;20044;-72
2022/02/11 10:35:25;;;;;;;11.95;3.55;;;7.90;94.90;;;;;;5094946;28;20028;-72
2022/02/11 10:38:04;;;;;;;5.68;1.08;;;7.90;94.90;;;;;;5083737;28;20024;-70
2022/02/11 10:40:31;;;;;;;13.63;1.92;;;7.90;94.90;;;;;;5094718;28;20089;-69
2022/02/11 10:42:57;;;;;;;9.60;1.85;;;7.90;94.90;;;;;;5093972;28;20028;-70
2022/02/11 10:45:37;;;;;;;10.82;1.85;;;7.90;94.90;;;;;;5094435;28;20046;-72
2022/02/11 10:48:11;;;;;;;5.45;1.42;;;7.90;94.80;;;;;;5074887;28;20028;-69
2022/02/11 10:50:38;;;;;;;6.10;1.00;;;8.00;94.80;;;;;;5092088;28;20028;-70
2022/02/11 10:53:05;;;;;;;6.88;1.17;;;8.00;94.70;;;;;;5082229;28;20479;-69
2022/02/11 10:55:31;;;;;;;7.05;1.85;;;8.10;94.60;;;;;;5092763;28;20028;-69
2022/02/11 10:57:59;;;;;;;3.25;1.70;;;8.10;94.50;;;;;;5082465;28;20063;-70
2022/02/11 11:00:26;;;;;;;6.13;1.30;;;8.10;94.40;;;;;;5079868;28;20032;-69
2022/02/11 11:02:53;;;;;;;7.97;2.13;;;8.10;94.40;;;;;;5092399;28;20055;-69
2022/02/11 11:05:18;;;;;;;5.63;1.05;;;8.10;94.20;;;;;;5093004;28;20050;-69
2022/02/11 11:07:44;;;;;;;7.38;1.60;;;8.10;94.30;;;;;;5093801;28;20012;-69
2022/02/11 11:10:11;;;;;;;13.25;2.50;;;8.10;94.30;;;;;;5083351;28;20439;-69
2022/02/11 11:12:41;;;;;;;12.68;2.72;;;8.10;94.30;;;;;;5092889;28;20081;-70
2022/02/11 11:15:08;;;;;;;6.00;1.67;;;8.10;94.20;;;;;;5094179;28;20035;-69
2022/02/11 11:17:38;;;;;;;14.40;2.00;;;8.10;94.20;;;;;;5094258;28;20044;-70
2022/02/11 11:20:05;;;;;;;9.25;1.92;;;8.10;94.10;;;;;;5090824;28;20135;-69
2022/02/11 11:22:37;;;;;;;11.88;1.33;;;8.10;93.90;;;;;;5092783;28;20356;-72
2022/02/11 11:25:08;;;;;;;3.70;0.80;;;8.20;94.10;;;;;;5094110;28;20062;-74
2022/02/11 11:27:42;;;;;;;12.27;2.65;;;8.20;94.20;;;;;;5093850;28;20032;-69
2022/02/11 11:30:27;;;;;;;6.18;1.05;;;8.20;94.20;;;;;;5092566;28;20028;-69
2022/02/11 11:33:05;;;;;;;8.60;1.58;;;8.20;94.20;;;;;;5093172;28;20085;-70
2022/02/11 11:35:35;;;;;;;10.82;1.58;;;8.30;94.10;;;;;;5081287;28;20033;-75
2022/02/11 11:38:21;;;;;;;14.00;1.95;;;8.20;94.10;;;;;;5096237;28;20031;-69
2022/02/11 11:41:03;;;;;;;3.75;1.02;;;8.30;94.20;;;;;;5084573;28;20383;-69
2022/02/11 11:43:40;;;;;;;9.45;1.50;;;8.30;94.10;;;;;;5093660;28;20062;-69
2022/02/11 11:46:23;;;;;;;13.45;2.20;;;8.40;94.10;;;;;;5087060;28;20047;-70
2022/02/11 11:49:09;;;;;;;8.15;2.60;;;8.40;94.10;;;;;;5086307;28;20039;-70
2022/02/11 11:51:34;;;;;;;4.35;1.30;;;8.40;93.90;;;;;;5086833;28;20040;-70
2022/02/11 11:54:20;;;;;;;8.95;1.48;;;8.40;93.90;;;;;;5074043;28;20070;-70
2022/02/11 11:56:51;;;;;;;3.35;1.10;;;8.40;93.90;;;;;;5089922;28;20036;-70
2022/02/11 11:59:18;;;;;;;3.13;0.80;;;8.50;93.90;;;;;;5073315;28;20044;-73
2022/02/11 12:02:05;;;;;;;3.17;0.80;;;8.50;93.90;;;;;;5090910;28;20391;-73
2022/02/11 12:04:51;;;;;;;1.52;0.55;;;8.50;94.00;;;;;;5080622;28;20365;-72
2022/02/11 12:07:20;;;;;;;3.38;1.38;;;8.60;94.00;;;;;;5073616;28;20039;-73
2022/02/11 12:09:48;;;;;;;6.85;1.38;;;8.60;93.90;;;;;;5090293;28;20031;-70
2022/02/11 12:12:16;;;;;;;3.85;1.08;;;8.60;93.80;;;;;;5093660;28;20104;-73
2022/02/11 12:14:43;;;;;;;6.05;1.10;;;8.70;93.90;;;;;;5093618;28;20035;-73
2022/02/11 12:17:12;;;;;;;6.95;1.95;;;8.70;93.80;;;;;;5092564;28;20455;-72
2022/02/11 12:19:39;;;;;;;1.52;1.20;;;8.70;93.50;;;;;;5092598;28;20047;-73
2022/02/11 12:22:06;;;;;;;3.45;1.33;;;8.70;93.70;;;;;;5092887;28;20095;-73
2022/02/11 12:27:21;;;;;;;13.77;2.00;;;8.70;92.80;;;;;;5084041;28;20028;-73
2022/02/11 12:29:49;;;;;;;16.33;2.42;;;8.70;93.00;;;;;;5089249;28;20032;-74
2022/02/11 12:32:16;;;;;;;4.80;1.27;;;8.70;93.10;;;;;;5091515;28;20024;-73
2022/02/11 12:34:57;;;;;;;10.43;1.67;;;8.70;92.80;;;;;;5092858;28;20028;-73
2022/02/11 12:37:24;;;;;;;7.72;1.85;;;8.70;92.40;;;;;;5086052;28;20082;-75
2022/02/11 12:40:05;;;;;;;1.73;0.68;;;8.60;92.50;;;;;;5096808;28;20036;-72
2022/02/11 12:42:32;;;;;;;7.55;1.10;;;8.60;92.80;;;;;;5092356;28;20024;-72
2022/02/11 12:44:58;;;;;;;14.38;2.92;;;8.60;93.10;;;;;;5087363;28;20037;-74
2022/02/11 12:47:24;;;;;;;8.10;1.40;;;8.60;93.30;;;;;;5072934;28;20040;-72
2022/02/11 12:49:54;;;;;;;1.25;0.55;;;8.60;93.20;;;;;;5085470;28;20119;-73
2022/02/11 12:52:24;;;;;;;2.53;1.23;;;8.60;93.40;;;;;;5084925;28;20070;-73
2022/02/11 12:55:32;;;;;;;3.90;2.00;;;8.60;93.60;;;;;;5092989;28;20036;-71
2022/02/11 12:58:01;;;;;;;4.63;0.60;;;8.70;93.70;;;;;;5071278;28;20082;-70
2022/02/11 13:00:32;;;;;;;4.35;1.08;;;8.70;93.80;;;;;;5078537;28;20053;-71
2022/02/11 13:03:00;;;;;;;3.40;0.95;;;8.70;93.80;;;;;;5084996;28;20064;-70
2022/02/11 13:05:30;;;;;;;5.90;1.23;;;8.80;93.80;;;;;;5071169;28;20071;-71
2022/02/11 13:07:58;;;;;;;11.95;1.50;;;8.80;93.90;;;;;;5080358;28;20032;-71
2022/02/11 13:10:37;;;;;;;6.38;1.25;;;8.80;93.70;;;;;;5091790;28;20020;-71
2022/02/11 13:13:13;;;;;;;14.25;2.03;;;8.90;93.80;;;;;;5091716;28;20778;-70
2022/02/11 13:15:41;;;;;;;5.53;1.27;;;8.90;93.80;;;;;;5092599;28;20063;-70
2022/02/11 13:18:11;;;;;;;6.55;1.15;;;9.00;93.70;;;;;;5092148;28;20072;-71
2022/02/11 13:20:42;;;;;;;2.83;0.80;;;9.00;93.50;;;;;;5091617;28;20035;-70
2022/02/11 13:23:15;;;;;;;6.55;1.38;;;9.10;93.60;;;;;;5087207;28;20072;-70
2022/02/11 13:25:42;;;;;;;9.63;1.40;;;9.10;93.30;;;;;;5080437;28;20036;-70
2022/02/11 13:28:16;;;;;;;2.25;1.05;;;9.20;93.50;;;;;;5086978;28;20112;-71
2022/02/11 13:30:45;;;;;;;3.83;0.85;;;9.20;93.50;;;;;;5092293;28;20036;-71
2022/02/11 13:33:25;;;;;;;3.10;0.82;;;9.20;93.70;;;;;;5086467;28;20046;-71
2022/02/11 13:35:54;;;;;;;10.02;1.40;;;9.20;93.60;;;;;;5086219;28;20028;-71
2022/02/11 13:38:26;;;;;;;3.88;0.90;;;9.30;93.30;;;;;;5099665;28;20023;-72
2022/02/11 13:40:57;;;;;;;1.35;0.75;;;9.20;93.10;;;;;;5082506;28;20259;-69
2022/02/11 13:43:23;;;;;;;8.70;1.13;;;9.30;93.40;;;;;;5089944;28;20032;-70
2022/02/11 13:46:03;;;;;;;3.75;0.95;;;9.20;93.50;;;;;;5074788;28;20028;-72
2022/02/11 13:48:31;;;;;;;2.78;0.82;;;9.20;93.40;;;;;;5091869;28;20458;-74
2022/02/11 13:51:12;;;;;;;8.02;1.15;;;9.20;93.40;;;;;;5083343;28;20060;-73
2022/02/11 13:53:44;;;;;;;6.03;0.80;;;9.30;93.30;;;;;;5085399;28;20032;-71
2022/02/11 13:56:17;;;;;;;2.42;0.73;;;9.30;93.50;;;;;;5095318;28;20036;-69
2022/02/11 13:59:03;;;;;;;2.33;0.60;;;9.40;93.60;;;;;;5094522;28;20047;-70
2022/02/11 14:01:30;;;;;;;9.82;1.23;;;9.30;93.70;;;;;;5093107;28;20277;-70
2022/02/11 14:04:04;;;;;;;4.07;1.35;;;9.40;93.80;;;;;;5094709;28;20024;-70
2022/02/11 14:06:35;;;;;;;6.35;1.42;;;9.40;93.80;;;;;;5095496;28;20066;-70
2022/02/11 14:09:02;;;;;;;8.50;0.80;;;9.40;93.80;;;;;;5093905;28;20102;-70
2022/02/11 14:11:34;;;;;;;12.07;1.67;;;9.40;93.80;;;;;;5092727;28;20020;-70
2022/02/11 14:14:08;;;;;;;7.47;1.50;;;9.50;93.80;;;;;;5092718;28;20052;-70
2022/02/11 14:16:35;;;;;;;8.88;1.48;;;9.50;93.60;;;;;;5093302;28;20039;-70
2022/02/11 14:19:00;;;;;;;8.25;1.08;;;9.50;93.70;;;;;;5094983;28;20051;-69
2022/02/11 14:21:26;;;;;;;5.95;1.40;;;9.50;93.90;;;;;;5094369;28;20406;-69
2022/02/11 14:23:52;;;;;;;5.35;0.82;;;9.50;93.90;;;;;;5094026;28;20040;-69
2022/02/11 14:26:17;;;;;;;8.18;1.25;;;9.60;94.00;;;;;;5095143;28;20024;-69
2022/02/11 14:28:43;;;;;;;10.20;1.42;;;9.60;94.00;;;;;;5093865;28;20020;-69
2022/02/11 14:31:09;;;;;;;5.50;1.80;;;9.60;93.80;;;;;;5090726;28;20479;-69
2022/02/11 14:33:35;;;;;;;6.75;1.08;;;9.70;93.70;;;;;;5093885;28;20464;-69
2022/02/11 14:36:00;;;;;;;9.35;1.70;;;9.70;93.50;;;;;;5087305;28;20040;-70
2022/02/11 14:38:26;;;;;;;3.42;1.05;;;9.70;93.10;;;;;;5094100;28;20028;-69
2022/02/11 14:43:36;;;;;;;;;;;9.70;93.30;;;;;;5091626;28;20035;-69
2022/02/11 14:46:02;;;;;;;13.55;2.03;;;9.70;93.40;;;;;;5092509;28;19927;-80
2022/02/11 14:48:28;;;;;;;9.15;1.83;;;9.70;93.30;;;;;;5093073;28;20110;-70
2022/02/11 14:50:54;;;;;;;12.32;1.65;;;9.70;93.60;;;;;;5093375;28;20060;-68
2022/02/11 14:53:20;;;;;;;12.60;1.30;;;9.70;93.60;;;;;;5092534;28;20467;-69
2022/02/11 14:55:45;;;;;;;15.50;2.25;;;9.80;93.60;;;;;;5093596;28;20372;-70
2022/02/11 14:58:11;;;;;;;8.75;1.63;;;9.80;93.30;;;;;;5093445;28;20039;-69
2022/02/11 15:00:37;;;;;;;11.98;1.20;;;9.80;93.30;;;;;;5096489;28;20128;-69
2022/02/11 15:03:03;;;;;;;11.98;1.48;;;9.80;93.50;;;;;;5086744;28;20036;-69
2022/02/11 15:05:28;;;;;;;8.32;2.03;;;9.80;93.40;;;;;;5092651;28;20078;-69
2022/02/11 15:07:54;;;;;;;10.25;1.65;;;9.90;93.40;;;;;;5092862;28;20028;-69
2022/02/11 15:10:22;;;;;;;15.88;2.72;;;9.90;93.30;;;;;;5092522;28;20421;-69
2022/02/11 15:12:48;;;;;;;13.65;1.65;;;9.90;93.00;;;;;;5092313;28;20055;-69
2022/02/11 15:15:13;;;;;;;9.35;1.67;;;9.90;92.80;;;;;;5093596;28;20028;-69
2022/02/11 15:17:40;;;;;;;14.30;1.95;;;10.00;92.60;;;;;;5094511;28;20028;-69
2022/02/11 15:20:06;;;;;;;13.20;1.63;;;9.90;92.30;;;;;;5080816;28;20047;-68
2022/02/11 15:22:31;;;;;;;7.20;1.38;;;9.90;92.00;;;;;;5094380;28;20036;-69
2022/02/11 15:24:57;;;;;;;3.08;1.10;;;9.90;92.00;;;;;;5094454;28;20115;-69
2022/02/11 15:27:23;;;;;;;8.13;1.90;;;10.00;92.10;;;;;;5093167;28;20028;-70
2022/02/11 15:29:49;;;;;;;16.30;1.98;;;9.90;91.60;;;;;;5093661;28;20070;-69
2022/02/11 15:32:15;;;;;;;8.95;1.52;;;10.00;91.80;;;;;;5090582;28;20024;-72
2022/02/11 15:34:44;;;;;;;13.65;1.55;;;9.90;91.70;;;;;;5092100;28;20081;-70
2022/02/11 15:37:10;;;;;;;9.70;1.13;;;9.90;91.90;;;;;;5090148;28;20028;-68
2022/02/11 15:39:36;;;;;;;7.40;1.33;;;9.90;92.50;;;;;;5091499;28;20126;-68
2022/02/11 15:42:03;;;;;;;9.85;1.67;;;9.90;92.60;;;;;;5092323;28;20456;-68
2022/02/11 15:44:29;;;;;;;13.25;1.60;;;9.90;92.20;;;;;;5093334;28;20418;-68
2022/02/11 15:46:55;;;;;;;9.07;1.50;;;10.00;92.30;;;;;;5092705;28;20036;-71
2022/02/11 15:49:21;;;;;;;14.10;2.00;;;10.00;92.00;;;;;;5089917;28;20066;-71
2022/02/11 15:51:47;;;;;;;6.80;0.85;;;10.00;91.20;;;;;;5090390;28;20047;-69
2022/02/11 15:54:13;;;;;;;10.40;2.20;;;10.00;91.50;;;;;;5090632;28;20020;-68
2022/02/11 15:56:38;;;;;;;8.70;1.42;;;10.00;90.40;;;;;;5089911;28;20391;-68
2022/02/11 15:59:04;;;;;;;8.90;1.67;;;10.00;90.60;;;;;;5090623;28;20139;-68
2022/02/11 16:01:30;;;;;;;7.22;1.55;;;10.00;89.20;;;;;;5091461;28;20032;-68
2022/02/11 16:03:55;;;;;;;5.93;1.30;;;9.90;88.00;;;;;;5089706;28;20067;-69
2022/02/11 16:06:21;;;;;;;6.53;1.63;;;10.00;87.80;;;;;;5088907;28;20067;-71
2022/02/11 16:08:47;;;;;;;5.72;1.40;;;10.00;86.70;;;;;;5087902;28;20071;-72
2022/02/11 16:11:12;;;;;;;8.85;1.40;;;10.00;85.60;;;;;;5089734;28;20024;-71
2022/02/11 16:13:38;;;;;;;10.88;1.88;;;10.00;84.50;;;;;;5087475;28;20028;-69
2022/02/11 16:16:04;;;;;;;6.22;1.17;;;10.00;84.00;;;;;;5088297;28;20573;-68
2022/02/11 16:18:30;;;;;;;10.95;1.73;;;10.00;83.50;;;;;;5087989;28;20036;-69
2022/02/11 16:20:56;;;;;;;11.05;1.45;;;10.00;83.00;;;;;;5089225;28;20040;-69
2022/02/11 16:23:27;;;;;;;5.45;1.48;;;9.90;83.50;;;;;;5088825;28;20077;-69
2022/02/11 16:25:54;;;;;;;6.05;1.50;;;9.90;84.60;;;;;;5085162;28;20565;-70
2022/02/11 16:28:20;;;;;;;10.68;1.73;;;9.90;85.90;;;;;;5088659;28;20028;-69
2022/02/11 16:30:47;;;;;;;7.60;1.45;;;9.90;85.80;;;;;;5089097;28;20040;-69
2022/02/11 16:33:13;;;;;;;9.65;1.55;;;9.90;85.60;;;;;;5087830;28;20019;-69
2022/02/11 16:35:41;;;;;;;6.22;1.50;;;9.90;84.70;;;;;;5088329;28;20036;-69
2022/02/11 16:38:09;;;;;;;10.88;1.60;;;9.90;84.20;;;;;;5093873;28;20020;-68
2022/02/11 16:40:36;;;;;;;7.82;1.60;;;9.80;83.90;;;;;;5093030;28;20040;-68
2022/02/11 16:43:02;;;;;;;5.15;1.30;;;9.80;83.90;;;;;;5093101;28;20024;-68
2022/02/11 16:45:33;;;;;;;6.00;1.25;;;9.80;83.80;;;;;;5091881;28;20040;-68
2022/02/11 16:47:59;;;;;;;16.52;2.13;;;9.80;83.50;;;;;;5080764;28;20033;-68
2022/02/11 16:50:25;;;;;;;9.55;1.80;;;9.70;83.40;;;;;;5090909;28;20160;-68
2022/02/11 16:52:51;;;;;;;7.40;1.42;;;9.70;83.40;;;;;;5092076;28;20118;-70